Terminal Aerodrome Forecast
Issued by NWS Wilmington, OH

Home | Current Version | Previous Version | Text Only | Print | Product List | Glossary On
Versions: 1 2 3 4 5 6 7 8 9 10 11 12 13 14 15 16 17 18
000
FTUS41 KILN 050500
TAFDAY
TAF
KDAY 050521Z 0506/0606 13005KT P6SM FEW045 OVC250
     FM051400 11004KT P6SM FEW050 OVC250
     FM060100 VRB03KT P6SM FEW060 BKN250=

USA.gov is the U.S. government's official web portal to all federal, state and local government web resources and services.